Time;durP1;ratioP1;P1;durP2;ratioP2;P2;SDS_P1;SDS_P2;PMS_P1;PMS_P2;Temp;Humidity;BMP_temperature;BMP_pressure;BME280_temperature;BME280_humidity;BME280_pressure;Samples;Min_cycle;Max_cycle;Signal;HPM_P1;HPM_P2
2022/04/23 00:01:14;;;;;;;12.93;9.05;;;10.90;99.90;;;;;;4997618;28;20133;-69
2022/04/23 00:03:39;;;;;;;14.70;9.32;;;10.90;99.90;;;;;;5015014;28;20064;-69
2022/04/23 00:06:05;;;;;;;11.73;8.73;;;10.80;99.90;;;;;;5018283;28;20145;-70
2022/04/23 00:08:30;;;;;;;15.73;9.55;;;10.80;99.90;;;;;;5001322;28;20049;-68
2022/04/23 00:10:56;;;;;;;15.27;8.68;;;10.80;99.90;;;;;;5018780;28;20498;-68
2022/04/23 00:13:22;;;;;;;15.38;8.80;;;10.80;99.90;;;;;;5018810;28;20379;-67
2022/04/23 00:15:48;;;;;;;13.52;8.90;;;10.80;99.90;;;;;;5018748;28;20045;-69
2022/04/23 00:18:13;;;;;;;15.98;8.50;;;10.70;99.90;;;;;;5018643;28;20456;-67
2022/04/23 00:20:39;;;;;;;12.70;9.00;;;10.70;99.90;;;;;;5018954;28;20416;-66
2022/04/23 00:23:06;;;;;;;12.60;9.07;;;10.70;99.90;;;;;;5018315;28;20046;-68
2022/04/23 00:25:35;;;;;;;14.63;8.93;;;10.60;99.90;;;;;;5018602;28;20100;-69
2022/04/23 00:28:01;;;;;;;16.52;9.48;;;10.60;99.90;;;;;;5009762;28;20042;-69
2022/04/23 00:30:27;;;;;;;10.73;9.00;;;10.60;99.90;;;;;;4998721;28;20541;-68
2022/04/23 00:32:52;;;;;;;13.00;9.18;;;10.60;99.90;;;;;;4998989;28;20108;-68
2022/04/23 00:35:19;;;;;;;13.05;8.95;;;10.50;99.90;;;;;;5007723;28;20078;-67
2022/04/23 00:37:45;;;;;;;16.88;9.65;;;10.50;99.90;;;;;;5018129;28;20053;-71
2022/04/23 00:40:16;;;;;;;14.57;9.98;;;10.50;99.90;;;;;;5018187;28;20065;-69
2022/04/23 00:42:53;;;;;;;15.13;10.43;;;10.50;99.90;;;;;;5017895;28;20456;-68
2022/04/23 00:45:20;;;;;;;18.40;10.57;;;10.50;99.90;;;;;;5018143;28;20132;-67
2022/04/23 00:47:46;;;;;;;16.77;10.70;;;10.40;99.90;;;;;;5018265;28;20042;-66
2022/04/23 00:50:12;;;;;;;15.73;10.05;;;10.40;99.90;;;;;;5017866;28;20050;-67
2022/04/23 00:52:38;;;;;;;18.13;10.57;;;10.40;99.90;;;;;;5018227;28;20372;-67
2022/04/23 00:55:05;;;;;;;13.32;10.75;;;10.40;99.90;;;;;;5017995;28;20042;-68
2022/04/23 00:57:32;;;;;;;13.05;10.18;;;10.30;99.90;;;;;;5018068;28;20418;-67
2022/04/23 00:59:59;;;;;;;14.85;10.13;;;10.30;99.90;;;;;;5017602;28;20478;-68
2022/04/23 01:02:24;;;;;;;13.10;9.50;;;10.30;99.90;;;;;;5017781;28;20046;-67
2022/04/23 01:04:50;;;;;;;17.10;10.43;;;10.30;99.90;;;;;;5017586;28;20049;-67
2022/04/23 01:07:15;;;;;;;15.40;10.35;;;10.20;99.90;;;;;;5017852;28;20045;-69
2022/04/23 01:09:44;;;;;;;14.73;10.63;;;10.30;99.90;;;;;;5017763;28;20047;-67
2022/04/23 01:12:11;;;;;;;18.33;10.35;;;10.20;99.90;;;;;;5017587;28;20042;-67
2022/04/23 01:15:05;;;;;;;17.80;11.32;;;10.20;99.90;;;;;;5017664;28;20048;-68
2022/04/23 01:17:31;;;;;;;14.75;10.38;;;10.30;99.90;;;;;;5017480;28;20100;-68
2022/04/23 01:19:57;;;;;;;15.85;10.63;;;10.20;99.90;;;;;;5017388;28;20042;-67
2022/04/23 01:22:24;;;;;;;15.95;10.75;;;10.20;99.90;;;;;;5017216;28;20058;-67
2022/04/23 01:24:54;;;;;;;14.95;11.18;;;10.20;99.90;;;;;;5017487;28;20092;-66
2022/04/23 01:27:23;;;;;;;14.60;10.55;;;10.20;99.90;;;;;;5017430;28;20081;-67
2022/04/23 01:29:48;;;;;;;15.85;11.70;;;10.10;99.90;;;;;;5017059;28;20092;-68
2022/04/23 01:32:14;;;;;;;16.55;11.10;;;10.10;99.90;;;;;;5017335;28;20089;-67
2022/04/23 01:34:39;;;;;;;17.27;11.68;;;10.10;99.90;;;;;;4996687;28;20061;-67
2022/04/23 01:37:05;;;;;;;18.52;11.65;;;10.10;99.90;;;;;;5012746;28;20057;-68
2022/04/23 01:39:30;;;;;;;17.77;12.23;;;10.00;99.90;;;;;;5008431;28;20053;-67
2022/04/23 01:41:56;;;;;;;17.05;12.55;;;10.00;99.90;;;;;;4997496;28;20056;-69
2022/04/23 01:44:21;;;;;;;16.75;11.38;;;10.00;99.90;;;;;;4997271;28;20059;-68
2022/04/23 01:46:47;;;;;;;14.55;12.02;;;9.90;99.90;;;;;;4997649;28;20046;-67
2022/04/23 01:49:12;;;;;;;16.83;11.85;;;9.90;99.90;;;;;;4997522;28;20054;-67
2022/04/23 01:51:38;;;;;;;17.35;13.52;;;9.90;99.90;;;;;;4997310;28;20484;-68
2022/04/23 01:54:03;;;;;;;18.23;12.48;;;9.90;99.90;;;;;;5012464;28;20064;-68
2022/04/23 01:56:29;;;;;;;18.98;13.15;;;9.90;99.90;;;;;;5016985;28;20077;-66
2022/04/23 01:58:54;;;;;;;17.02;13.30;;;9.80;99.90;;;;;;5016748;28;20444;-68
2022/04/23 02:01:20;;;;;;;16.48;12.52;;;9.80;99.90;;;;;;5016878;28;20440;-68
2022/04/23 02:03:45;;;;;;;19.17;12.95;;;9.80;99.90;;;;;;5016832;28;20057;-66
2022/04/23 02:06:12;;;;;;;18.75;13.43;;;9.80;99.90;;;;;;5016690;28;20120;-67
2022/04/23 02:08:38;;;;;;;20.20;13.38;;;9.80;99.90;;;;;;5016694;28;20085;-67
2022/04/23 02:11:03;;;;;;;18.95;14.23;;;9.80;99.90;;;;;;5016493;28;20080;-68
2022/04/23 02:13:30;;;;;;;20.50;13.43;;;9.80;99.90;;;;;;5016427;28;20050;-68
2022/04/23 02:15:56;;;;;;;15.93;13.57;;;9.80;99.90;;;;;;4999242;28;20089;-68
2022/04/23 02:18:22;;;;;;;16.45;13.95;;;9.80;99.90;;;;;;5016201;28;20088;-67
2022/04/23 02:20:48;;;;;;;21.27;14.25;;;9.80;99.90;;;;;;5013340;28;20042;-68
2022/04/23 02:23:13;;;;;;;19.48;13.65;;;9.80;99.90;;;;;;5016535;28;20061;-70
2022/04/23 02:25:39;;;;;;;20.85;14.52;;;9.80;99.90;;;;;;5016378;28;20053;-66
2022/04/23 02:28:05;;;;;;;18.55;14.05;;;9.70;99.90;;;;;;5015445;28;20088;-68
2022/04/23 02:30:32;;;;;;;19.80;15.32;;;9.70;99.90;;;;;;5015831;28;20125;-67
2022/04/23 02:32:58;;;;;;;18.27;15.32;;;9.70;99.90;;;;;;5016298;28;20165;-68
2022/04/23 02:35:23;;;;;;;18.50;14.75;;;9.70;99.90;;;;;;5016041;28;20120;-66
2022/04/23 02:37:53;;;;;;;20.83;14.70;;;9.80;99.90;;;;;;5015927;28;20068;-68
2022/04/23 02:40:19;;;;;;;18.67;14.82;;;9.80;99.90;;;;;;4998466;28;20387;-68
2022/04/23 02:42:45;;;;;;;17.83;14.50;;;9.70;99.90;;;;;;5015746;28;20054;-70
2022/04/23 02:45:14;;;;;;;20.65;15.38;;;9.70;99.90;;;;;;5012604;28;20045;-69
2022/04/23 02:47:48;;;;;;;18.85;14.57;;;9.70;99.90;;;;;;5015201;28;20379;-67
2022/04/23 02:50:15;;;;;;;18.85;14.95;;;9.70;99.90;;;;;;5007273;28;20399;-67
2022/04/23 02:52:42;;;;;;;18.83;14.48;;;9.70;99.90;;;;;;4996548;28;20057;-70
2022/04/23 02:55:09;;;;;;;21.58;14.10;;;9.60;99.90;;;;;;4996084;28;20177;-68
2022/04/23 02:57:35;;;;;;;18.40;15.38;;;9.60;99.90;;;;;;4996094;28;20058;-67
2022/04/23 03:00:01;;;;;;;22.38;14.90;;;9.60;99.90;;;;;;4963135;28;20046;-68
2022/04/23 03:02:28;;;;;;;17.52;14.48;;;9.60;99.90;;;;;;5014459;28;20403;-67
2022/04/23 03:04:53;;;;;;;20.83;16.02;;;9.60;99.90;;;;;;5015655;28;20049;-68
2022/04/23 03:07:20;;;;;;;21.33;16.63;;;9.50;99.90;;;;;;5015735;28;20503;-68
2022/04/23 03:09:46;;;;;;;19.10;15.20;;;9.50;99.90;;;;;;5015717;28;20129;-69
2022/04/23 03:12:12;;;;;;;23.58;16.20;;;9.50;99.90;;;;;;5015614;28;20124;-68
2022/04/23 03:14:37;;;;;;;20.27;16.88;;;9.40;99.90;;;;;;5015549;28;20081;-70
2022/04/23 03:17:03;;;;;;;23.73;16.50;;;9.50;99.90;;;;;;5015454;28;20096;-68
2022/04/23 03:19:29;;;;;;;21.40;16.25;;;9.50;99.90;;;;;;5011920;28;20463;-66
2022/04/23 03:21:56;;;;;;;22.30;15.88;;;9.40;99.90;;;;;;4998401;28;20080;-67
2022/04/23 03:24:21;;;;;;;21.05;16.23;;;9.40;99.90;;;;;;5015261;28;20479;-68
2022/04/23 03:26:47;;;;;;;23.27;17.70;;;9.40;99.90;;;;;;5015222;28;20081;-67
2022/04/23 03:29:12;;;;;;;19.63;15.52;;;9.40;99.90;;;;;;5015346;28;20104;-68
2022/04/23 03:31:38;;;;;;;20.48;16.20;;;9.40;99.90;;;;;;5015322;28;20061;-68
2022/04/23 03:34:03;;;;;;;20.88;16.60;;;9.30;99.90;;;;;;5015195;28;20093;-68
2022/04/23 03:36:29;;;;;;;20.02;16.85;;;9.30;99.90;;;;;;4997720;28;20053;-67
2022/04/23 03:38:54;;;;;;;21.40;16.88;;;9.30;99.90;;;;;;5014437;28;20045;-69
2022/04/23 03:41:20;;;;;;;18.65;15.82;;;9.30;99.90;;;;;;5014820;28;20041;-68
2022/04/23 03:43:45;;;;;;;24.08;17.08;;;9.30;99.90;;;;;;5015341;28;20046;-69
2022/04/23 03:46:12;;;;;;;21.75;16.88;;;9.30;99.90;;;;;;5014942;28;20046;-69
2022/04/23 03:48:37;;;;;;;20.90;16.17;;;9.30;99.90;;;;;;5015255;28;20124;-66
2022/04/23 03:51:03;;;;;;;22.08;16.50;;;9.30;99.90;;;;;;5014991;28;20475;-67
2022/04/23 03:53:28;;;;;;;20.25;16.17;;;9.30;99.90;;;;;;5014051;28;20070;-67
2022/04/23 03:55:54;;;;;;;21.98;16.92;;;9.30;99.90;;;;;;5003172;28;20096;-69
2022/04/23 03:58:20;;;;;;;22.88;16.95;;;9.30;99.90;;;;;;5014725;28;20112;-68
2022/04/23 04:00:45;;;;;;;21.00;16.25;;;9.30;99.90;;;;;;5014805;28;20046;-68
2022/04/23 04:03:11;;;;;;;20.38;16.05;;;9.30;99.90;;;;;;5015163;28;20049;-67
2022/04/23 04:05:36;;;;;;;20.42;16.40;;;9.20;99.90;;;;;;5015037;28;20096;-67
2022/04/23 04:08:03;;;;;;;18.60;15.82;;;9.20;99.90;;;;;;5014952;28;20038;-68
2022/04/23 04:10:28;;;;;;;21.35;16.10;;;9.20;99.90;;;;;;5014420;28;20056;-69
2022/04/23 04:12:54;;;;;;;23.58;16.48;;;9.20;99.90;;;;;;5014512;28;20124;-67
2022/04/23 04:15:20;;;;;;;22.13;16.88;;;9.20;99.90;;;;;;5014782;28;20046;-65
2022/04/23 04:17:50;;;;;;;19.75;16.48;;;9.20;99.90;;;;;;4998172;28;20521;-68
2022/04/23 04:20:16;;;;;;;20.10;16.27;;;9.10;99.90;;;;;;5014901;28;20149;-68
2022/04/23 04:22:44;;;;;;;20.52;16.80;;;9.10;99.90;;;;;;5014587;28;20448;-67
2022/04/23 04:25:11;;;;;;;19.35;17.33;;;9.10;99.90;;;;;;5014465;28;20049;-68
2022/04/23 04:27:37;;;;;;;19.17;16.05;;;9.10;99.90;;;;;;5014452;28;20143;-67
2022/04/23 04:30:05;;;;;;;19.15;15.45;;;9.10;99.90;;;;;;5014594;28;20045;-67
2022/04/23 04:32:31;;;;;;;22.63;17.45;;;9.10;99.90;;;;;;5014766;28;20034;-67
2022/04/23 04:34:57;;;;;;;23.83;15.15;;;9.10;99.90;;;;;;5014526;28;20420;-67
2022/04/23 04:37:22;;;;;;;21.13;15.02;;;9.10;99.90;;;;;;5014693;28;20533;-66
2022/04/23 04:39:48;;;;;;;20.80;16.10;;;9.10;99.90;;;;;;4997304;28;20497;-69
2022/04/23 04:42:14;;;;;;;19.45;15.00;;;9.10;99.90;;;;;;5011253;28;20065;-66
2022/04/23 04:44:40;;;;;;;20.58;16.00;;;9.10;99.90;;;;;;5014631;28;20060;-67
2022/04/23 04:47:07;;;;;;;20.58;16.27;;;9.10;99.90;;;;;;4997858;28;20058;-69
2022/04/23 04:49:32;;;;;;;17.70;15.13;;;9.10;99.90;;;;;;5014574;28;20352;-67
2022/04/23 04:51:58;;;;;;;19.50;15.77;;;9.10;99.90;;;;;;5016907;28;20108;-67
2022/04/23 04:54:23;;;;;;;16.40;14.70;;;9.10;99.90;;;;;;5017842;28;20053;-67
2022/04/23 04:56:50;;;;;;;17.30;14.75;;;9.20;99.90;;;;;;5018063;28;20108;-66
2022/04/23 04:59:16;;;;;;;19.73;14.80;;;9.20;99.90;;;;;;5017926;28;20386;-67
2022/04/23 05:01:41;;;;;;;21.38;15.63;;;9.20;99.90;;;;;;5011224;28;20045;-68
2022/04/23 05:04:07;;;;;;;17.80;15.25;;;9.20;99.90;;;;;;4998245;28;20050;-68
2022/04/23 05:06:32;;;;;;;17.17;14.45;;;9.20;99.90;;;;;;4998198;28;20125;-69
2022/04/23 05:08:58;;;;;;;18.67;15.68;;;9.20;99.90;;;;;;4980864;28;20140;-67
2022/04/23 05:11:24;;;;;;;17.60;15.07;;;9.20;99.90;;;;;;4998213;28;20442;-66
2022/04/23 05:13:50;;;;;;;18.88;14.30;;;9.20;99.90;;;;;;4998271;28;20057;-67
2022/04/23 05:16:16;;;;;;;20.67;15.02;;;9.20;99.90;;;;;;4998690;28;20125;-68
2022/04/23 05:18:42;;;;;;;19.02;15.48;;;9.20;99.90;;;;;;5017770;28;20133;-68
2022/04/23 05:21:07;;;;;;;16.38;14.23;;;9.20;99.90;;;;;;5017849;28;20057;-68
2022/04/23 05:23:33;;;;;;;23.17;15.73;;;9.30;99.90;;;;;;5017261;28;20519;-67
2022/04/23 05:25:59;;;;;;;19.65;16.00;;;9.30;99.90;;;;;;5017549;28;20050;-67
2022/04/23 05:28:24;;;;;;;17.33;14.40;;;9.30;99.90;;;;;;5000406;28;20058;-67
2022/04/23 05:30:50;;;;;;;20.20;15.60;;;9.30;99.90;;;;;;5017310;28;20372;-67
2022/04/23 05:33:15;;;;;;;17.75;15.85;;;9.30;99.90;;;;;;5017343;28;20049;-66
2022/04/23 05:35:41;;;;;;;17.67;14.25;;;9.40;99.90;;;;;;5005238;28;20046;-68
2022/04/23 05:38:07;;;;;;;20.48;16.20;;;9.40;99.90;;;;;;4980358;28;20464;-68
2022/04/23 05:40:33;;;;;;;17.08;14.48;;;9.40;99.90;;;;;;4980538;28;20054;-67
2022/04/23 05:42:58;;;;;;;16.83;13.95;;;9.40;99.90;;;;;;4997413;28;20133;-69
2022/04/23 05:45:28;;;;;;;18.52;15.18;;;9.50;99.90;;;;;;4997676;28;20109;-67
2022/04/23 05:47:54;;;;;;;17.38;14.38;;;9.50;99.90;;;;;;4997364;28;20104;-68
2022/04/23 05:50:20;;;;;;;18.88;15.63;;;9.50;99.90;;;;;;4999062;28;20460;-67
2022/04/23 05:52:46;;;;;;;20.33;15.55;;;9.50;99.90;;;;;;5016328;28;20053;-65
2022/04/23 05:55:12;;;;;;;18.40;15.35;;;9.60;99.90;;;;;;5016733;28;20092;-72
2022/04/23 05:57:38;;;;;;;19.85;15.40;;;9.60;99.90;;;;;;5016858;28;20101;-70
2022/04/23 06:00:09;;;;;;;17.08;14.43;;;9.70;99.90;;;;;;5000049;28;20069;-66
2022/04/23 06:02:35;;;;;;;16.98;14.32;;;9.70;99.90;;;;;;5015751;28;20046;-70
2022/04/23 06:05:01;;;;;;;17.83;15.15;;;9.70;99.90;;;;;;5017040;28;20048;-66
2022/04/23 06:07:26;;;;;;;16.38;14.65;;;9.80;99.90;;;;;;5012239;28;20057;-67
2022/04/23 06:09:52;;;;;;;17.90;15.30;;;9.80;99.90;;;;;;5016743;28;20041;-67
2022/04/23 06:12:18;;;;;;;19.13;14.57;;;9.80;99.90;;;;;;5016542;28;20049;-65
2022/04/23 06:14:44;;;;;;;18.35;15.98;;;9.90;99.90;;;;;;5016714;28;20049;-67
2022/04/23 06:17:12;;;;;;;17.65;14.52;;;10.00;99.90;;;;;;5016628;28;20042;-66
2022/04/23 06:19:38;;;;;;;16.38;14.60;;;10.00;99.90;;;;;;5016392;28;20121;-67
2022/04/23 06:22:04;;;;;;;15.77;13.75;;;10.10;99.90;;;;;;5016309;28;20042;-66
2022/04/23 06:24:30;;;;;;;18.85;15.02;;;10.10;99.90;;;;;;5016230;28;20415;-68
2022/04/23 06:26:56;;;;;;;17.15;13.65;;;10.10;99.90;;;;;;5012952;28;20133;-66
2022/04/23 06:29:22;;;;;;;16.10;13.60;;;10.20;99.90;;;;;;5015961;28;20046;-66
2022/04/23 06:31:47;;;;;;;16.20;14.48;;;10.20;99.90;;;;;;5011515;28;20065;-70
2022/04/23 06:34:13;;;;;;;16.38;14.07;;;10.30;99.90;;;;;;5012250;28;20045;-70
2022/04/23 06:36:40;;;;;;;21.02;13.55;;;10.40;99.90;;;;;;5004389;28;20480;-67
2022/04/23 06:39:06;;;;;;;17.83;14.52;;;10.40;99.90;;;;;;5013270;28;20038;-66
2022/04/23 06:41:31;;;;;;;15.48;13.20;;;10.50;99.90;;;;;;5011249;28;20526;-68
2022/04/23 06:43:57;;;;;;;16.02;14.10;;;10.50;99.90;;;;;;5015714;28;20045;-71
2022/04/23 06:46:22;;;;;;;14.63;13.05;;;10.60;99.90;;;;;;5016153;28;20050;-68
2022/04/23 06:48:48;;;;;;;15.82;13.82;;;10.70;99.90;;;;;;5015905;28;20062;-70
2022/04/23 06:51:13;;;;;;;16.27;14.05;;;10.70;99.90;;;;;;5015759;28;20049;-69
2022/04/23 06:53:39;;;;;;;14.68;13.00;;;10.80;99.90;;;;;;5015877;28;20366;-70
2022/04/23 06:56:05;;;;;;;15.82;14.13;;;10.90;99.90;;;;;;5015878;28;20053;-70
2022/04/23 06:58:31;;;;;;;17.52;14.18;;;10.90;99.90;;;;;;4995606;28;20047;-70
2022/04/23 07:00:58;;;;;;;15.63;13.10;;;11.10;99.90;;;;;;5015667;28;20049;-73
2022/04/23 07:03:24;;;;;;;15.85;13.32;;;11.10;99.90;;;;;;5015884;28;20038;-69
2022/04/23 07:05:50;;;;;;;15.00;13.40;;;11.20;99.90;;;;;;5015626;28;20050;-70
2022/04/23 07:08:15;;;;;;;15.63;13.95;;;11.30;99.90;;;;;;5015698;28;20137;-71
2022/04/23 07:10:44;;;;;;;15.50;13.20;;;11.30;99.90;;;;;;4998373;28;20085;-71
2022/04/23 07:13:11;;;;;;;16.20;13.95;;;11.40;99.90;;;;;;5004211;28;20479;-69
2022/04/23 07:15:37;;;;;;;16.65;13.13;;;11.50;99.90;;;;;;5013898;28;20081;-67
2022/04/23 07:18:03;;;;;;;14.95;13.13;;;11.50;99.90;;;;;;5015181;28;20087;-70
2022/04/23 07:20:28;;;;;;;15.95;13.80;;;11.60;99.90;;;;;;5012020;28;20054;-70
2022/04/23 07:25:38;;;;;;;15.77;13.02;;;11.70;99.90;;;;;;4995736;28;20053;-68
2022/04/23 07:28:05;;;;;;;17.17;13.40;;;11.80;99.90;;;;;;5012228;28;20038;-70
2022/04/23 07:30:33;;;;;;;14.40;12.82;;;11.90;99.90;;;;;;5015000;28;20073;-69
2022/04/23 07:32:58;;;;;;;14.95;13.45;;;12.00;99.90;;;;;;5014933;28;20080;-70
2022/04/23 07:38:16;;;;;;;14.50;12.15;;;12.20;99.90;;;;;;5015166;28;20053;-69
2022/04/23 07:40:43;;;;;;;18.25;13.63;;;12.20;99.90;;;;;;4997839;28;20129;-70
2022/04/23 07:43:10;;;;;;;18.50;12.90;;;12.20;99.90;;;;;;5015125;28;20046;-70
2022/04/23 07:45:37;;;;;;;15.30;12.57;;;12.30;99.90;;;;;;5015080;28;20117;-69
2022/04/23 07:48:04;;;;;;;14.77;13.27;;;12.40;99.90;;;;;;5014872;28;20069;-69
2022/04/23 07:50:30;;;;;;;16.23;12.75;;;12.50;99.90;;;;;;5014937;28;20103;-67
2022/04/23 07:52:56;;;;;;;14.95;13.32;;;12.50;99.90;;;;;;4997524;28;20133;-70
2022/04/23 07:55:21;;;;;;;17.42;13.80;;;12.60;99.90;;;;;;5014921;28;20046;-69
2022/04/23 07:57:47;;;;;;;17.48;14.13;;;12.60;99.90;;;;;;5015125;28;20475;-71
2022/04/23 08:00:13;;;;;;;16.20;13.38;;;12.70;99.90;;;;;;5014827;28;20061;-71
2022/04/23 08:02:39;;;;;;;17.23;13.32;;;12.70;99.90;;;;;;5011774;28;20053;-69
2022/04/23 08:05:05;;;;;;;15.15;12.65;;;12.80;99.90;;;;;;5014577;28;20058;-71
2022/04/23 08:07:30;;;;;;;16.25;13.38;;;12.90;99.90;;;;;;5011481;28;20124;-68
2022/04/23 08:09:56;;;;;;;14.65;12.57;;;12.90;99.90;;;;;;5014268;28;20134;-71
2022/04/23 08:12:21;;;;;;;15.77;12.88;;;13.00;99.90;;;;;;5014558;28;20092;-67
2022/04/23 08:14:47;;;;;;;17.25;12.77;;;13.10;99.90;;;;;;5014811;28;20104;-71
2022/04/23 08:17:12;;;;;;;16.33;13.15;;;13.20;99.90;;;;;;5014584;28;20104;-71
2022/04/23 08:19:38;;;;;;;15.05;11.30;;;13.20;99.90;;;;;;5014228;28;20125;-67
2022/04/23 08:22:04;;;;;;;13.77;12.27;;;13.20;99.90;;;;;;5014308;28;20054;-69
2022/04/23 08:24:31;;;;;;;13.43;12.02;;;13.20;99.90;;;;;;5014858;28;20041;-69
2022/04/23 08:26:57;;;;;;;13.40;11.82;;;13.30;99.90;;;;;;5000122;28;20065;-68
2022/04/23 08:32:08;;;;;;;16.13;11.57;;;13.40;99.90;;;;;;5018383;28;20057;-68
2022/04/23 08:34:33;;;;;;;14.10;12.65;;;13.40;99.90;;;;;;5018510;28;20104;-72
2022/04/23 08:36:59;;;;;;;13.00;11.63;;;13.40;99.90;;;;;;5018392;28;20050;-69
2022/04/23 08:39:24;;;;;;;15.75;11.55;;;13.40;99.90;;;;;;5018237;28;20398;-67
2022/04/23 08:41:50;;;;;;;18.30;11.93;;;13.40;99.90;;;;;;5000630;28;20050;-70
2022/04/23 08:44:16;;;;;;;14.93;12.30;;;13.40;99.90;;;;;;4984510;28;20057;-68
2022/04/23 08:46:42;;;;;;;16.67;12.00;;;13.40;99.90;;;;;;5018229;28;20344;-70
2022/04/23 08:49:17;;;;;;;16.85;11.80;;;13.40;99.90;;;;;;4998919;28;20112;-69
2022/04/23 08:51:49;;;;;;;12.68;10.93;;;13.40;99.90;;;;;;4998759;28;20058;-71
2022/04/23 08:54:16;;;;;;;12.35;11.13;;;13.40;99.90;;;;;;4998396;28;20050;-69
2022/04/23 08:56:43;;;;;;;13.82;12.32;;;13.40;99.90;;;;;;4998742;28;20419;-69
2022/04/23 08:59:11;;;;;;;13.30;11.68;;;13.40;99.90;;;;;;4998413;28;20043;-71
2022/04/23 09:01:38;;;;;;;14.43;11.85;;;13.50;99.90;;;;;;4999293;28;20353;-67
2022/04/23 09:04:06;;;;;;;13.80;11.38;;;13.50;99.90;;;;;;4999184;28;20108;-68
2022/04/23 09:06:40;;;;;;;12.88;11.05;;;13.50;99.90;;;;;;5017671;28;20104;-68
2022/04/23 09:09:10;;;;;;;12.35;11.10;;;13.50;99.90;;;;;;5017521;28;20387;-68
2022/04/23 09:11:37;;;;;;;13.90;11.18;;;13.60;99.90;;;;;;5017797;28;20130;-68
2022/04/23 09:14:04;;;;;;;14.73;11.85;;;13.60;99.90;;;;;;5017761;28;20080;-69
2022/04/23 09:25:03;;;;;;;16.40;11.95;;;13.60;99.90;;;;;;5017068;28;20057;-68
2022/04/23 09:27:30;;;;;;;14.32;11.25;;;13.70;99.90;;;;;;5017306;28;20050;-69
2022/04/23 09:30:06;;;;;;;13.60;11.38;;;13.70;99.90;;;;;;5017367;28;20418;-70
2022/04/23 09:32:32;;;;;;;13.13;10.57;;;13.80;99.90;;;;;;5017416;28;20053;-68
2022/04/23 09:35:16;;;;;;;12.27;10.75;;;13.80;99.90;;;;;;5016974;28;20053;-67
2022/04/23 09:40:27;;;;;;;13.63;11.77;;;13.90;99.90;;;;;;5017132;28;20054;-69
2022/04/23 09:43:01;;;;;;;12.63;10.75;;;14.00;99.90;;;;;;5016980;28;20143;-71
2022/04/23 09:45:29;;;;;;;13.33;11.70;;;14.00;99.90;;;;;;5017207;28;20057;-68
2022/04/23 09:48:15;;;;;;;14.10;11.60;;;14.00;99.90;;;;;;5016939;28;20312;-67
2022/04/23 09:50:42;;;;;;;14.50;11.65;;;14.00;99.90;;;;;;5016077;28;20054;-67
2022/04/23 09:53:12;;;;;;;15.63;11.52;;;14.10;99.90;;;;;;5016761;28;20353;-67
2022/04/23 09:55:38;;;;;;;14.18;11.82;;;14.10;99.90;;;;;;5015842;28;20053;-69
2022/04/23 09:58:08;;;;;;;14.57;12.32;;;14.10;99.90;;;;;;5016873;28;20111;-70
2022/04/23 10:00:39;;;;;;;15.15;11.80;;;14.20;99.90;;;;;;5016778;28;20057;-69
2022/04/23 10:03:08;;;;;;;14.30;12.75;;;14.20;99.90;;;;;;4996957;28;20129;-70
2022/04/23 10:05:45;;;;;;;13.43;12.13;;;14.20;99.90;;;;;;4980438;28;20125;-68
2022/04/23 10:08:13;;;;;;;14.32;12.20;;;14.30;99.90;;;;;;4997279;28;20519;-69
2022/04/23 10:10:43;;;;;;;12.55;11.25;;;14.30;99.90;;;;;;4997101;28;20054;-67
2022/04/23 10:13:11;;;;;;;13.57;12.05;;;14.30;99.90;;;;;;4996982;28;20050;-68
2022/04/23 10:15:39;;;;;;;14.52;12.68;;;14.40;99.90;;;;;;4996970;28;20046;-69
2022/04/23 10:18:08;;;;;;;14.63;12.05;;;14.40;99.90;;;;;;4997073;28;20089;-67
2022/04/23 10:20:34;;;;;;;13.27;11.98;;;14.40;99.90;;;;;;4996897;28;20053;-68
2022/04/23 10:23:09;;;;;;;14.88;12.77;;;14.50;99.90;;;;;;4997125;28;20050;-69
2022/04/23 10:25:50;;;;;;;14.57;12.80;;;14.50;99.90;;;;;;4997148;28;20376;-70
2022/04/23 10:28:18;;;;;;;14.48;13.07;;;14.60;99.90;;;;;;5001299;28;20121;-69
2022/04/23 10:30:46;;;;;;;15.57;12.68;;;14.60;99.90;;;;;;5014777;28;20042;-70
2022/04/23 10:33:26;;;;;;;13.75;12.30;;;14.60;99.90;;;;;;5016343;28;20402;-70
2022/04/23 10:36:10;;;;;;;19.27;12.32;;;14.70;99.90;;;;;;5015899;28;20467;-72
2022/04/23 10:38:38;;;;;;;16.23;13.45;;;14.80;99.90;;;;;;4998422;28;20084;-68
2022/04/23 10:41:09;;;;;;;14.77;12.05;;;14.80;99.90;;;;;;5016072;28;20050;-69
2022/04/23 10:43:35;;;;;;;14.57;13.10;;;14.90;99.90;;;;;;5015468;28;20472;-69
2022/04/23 10:46:04;;;;;;;15.13;12.20;;;14.90;99.90;;;;;;5006935;28;20085;-69
2022/04/23 10:48:30;;;;;;;13.43;12.13;;;14.90;99.90;;;;;;4995642;28;20042;-70
2022/04/23 10:51:02;;;;;;;13.43;11.65;;;15.00;99.90;;;;;;4978941;28;20104;-71
2022/04/23 10:53:51;;;;;;;13.10;11.80;;;15.00;99.90;;;;;;4996174;28;20053;-68
2022/04/23 10:56:19;;;;;;;14.95;12.35;;;15.00;99.90;;;;;;4996166;28;20123;-70
2022/04/23 10:58:45;;;;;;;13.25;11.95;;;15.10;99.90;;;;;;4996261;28;20052;-68
2022/04/23 11:01:25;;;;;;;14.35;12.02;;;15.20;99.90;;;;;;4991303;28;20046;-69
2022/04/23 11:03:59;;;;;;;13.27;11.73;;;15.30;99.90;;;;;;5015841;28;20053;-69
2022/04/23 11:12:50;;;;;;;12.07;10.88;;;15.50;99.90;;;;;;5015671;28;20024;-69
2022/04/23 11:15:17;;;;;;;11.88;10.68;;;15.60;99.90;;;;;;5009067;28;20049;-68
2022/04/23 11:17:46;;;;;;;12.32;11.02;;;15.60;99.90;;;;;;4998090;28;20049;-68
2022/04/23 11:20:12;;;;;;;12.55;10.63;;;15.60;99.90;;;;;;5008531;28;20452;-70
2022/04/23 11:22:38;;;;;;;13.52;11.48;;;15.70;99.90;;;;;;4996073;28;20042;-68
2022/04/23 11:25:04;;;;;;;12.55;10.90;;;15.70;99.90;;;;;;4995873;28;20053;-68
2022/04/23 11:27:33;;;;;;;11.68;10.57;;;15.70;99.90;;;;;;4995703;28;20038;-71
2022/04/23 11:29:59;;;;;;;12.15;10.93;;;15.80;99.90;;;;;;4995830;28;20404;-70
2022/04/23 11:32:29;;;;;;;15.02;10.75;;;15.90;99.90;;;;;;4995753;28;20435;-68
2022/04/23 11:35:05;;;;;;;12.65;11.40;;;15.90;99.90;;;;;;5000824;28;20037;-70
2022/04/23 11:37:32;;;;;;;14.00;11.23;;;16.00;99.90;;;;;;5014603;28;20430;-71
2022/04/23 11:40:11;;;;;;;11.10;10.00;;;16.00;99.90;;;;;;5015138;28;20038;-69
2022/04/23 11:42:39;;;;;;;13.20;10.57;;;16.10;99.90;;;;;;5015101;28;20360;-69
2022/04/23 11:45:06;;;;;;;16.00;10.32;;;16.20;99.90;;;;;;5015204;28;20060;-68
2022/04/23 11:47:33;;;;;;;11.35;10.15;;;16.30;99.90;;;;;;5014736;28;20455;-67
2022/04/23 11:50:14;;;;;;;10.50;9.40;;;16.40;99.90;;;;;;5005919;28;20448;-69
2022/04/23 11:52:56;;;;;;;12.52;10.13;;;16.50;99.90;;;;;;4995616;28;20077;-69
2022/04/23 11:55:23;;;;;;;13.18;9.23;;;16.50;99.90;;;;;;4995370;28;20514;-68
2022/04/23 11:57:59;;;;;;;12.85;9.48;;;16.60;99.90;;;;;;4978036;28;20380;-68
2022/04/23 12:00:26;;;;;;;10.63;9.45;;;16.60;99.90;;;;;;4995852;28;20055;-68
2022/04/23 12:02:53;;;;;;;12.20;9.27;;;16.60;99.90;;;;;;4999536;28;20089;-69
2022/04/23 12:05:29;;;;;;;13.38;9.02;;;16.70;99.90;;;;;;4982073;28;20404;-69
2022/04/23 12:07:56;;;;;;;9.55;8.55;;;16.80;99.90;;;;;;4999525;28;20050;-71
2022/04/23 12:10:26;;;;;;;10.18;8.65;;;16.90;99.90;;;;;;4999078;28;20096;-71
2022/04/23 12:12:52;;;;;;;10.35;9.25;;;16.90;99.90;;;;;;4999412;28;20093;-69
2022/04/23 12:15:21;;;;;;;9.68;8.10;;;17.00;99.90;;;;;;5009628;28;20128;-68
2022/04/23 12:17:54;;;;;;;10.48;8.48;;;17.10;99.90;;;;;;5018947;28;20042;-68
2022/04/23 12:20:21;;;;;;;8.38;7.57;;;17.20;99.90;;;;;;5018259;28;20459;-68
2022/04/23 12:23:01;;;;;;;12.93;9.00;;;17.20;99.90;;;;;;5018471;28;20068;-68
2022/04/23 12:25:28;;;;;;;12.02;9.13;;;17.40;99.90;;;;;;5018600;28;20129;-69
2022/04/23 12:28:01;;;;;;;10.20;8.63;;;17.40;99.90;;;;;;5018568;28;20096;-71
2022/04/23 12:42:00;;;;;;;11.57;8.25;;;18.20;99.90;;;;;;4998593;28;20124;-71
2022/04/23 12:44:37;;;;;;;14.07;9.43;;;18.50;98.10;;;;;;4998989;28;20360;-72
2022/04/23 12:47:09;;;;;;;9.13;8.23;;;18.70;96.40;;;;;;4998633;28;20042;-71
2022/04/23 12:49:49;;;;;;;9.77;8.77;;;19.00;96.20;;;;;;4998524;28;20045;-69
2022/04/23 12:52:23;;;;;;;12.50;8.77;;;19.20;94.00;;;;;;5003219;28;20509;-68
2022/04/23 12:55:13;;;;;;;10.73;8.80;;;19.70;95.00;;;;;;5017811;28;20054;-68
2022/04/23 12:57:44;;;;;;;11.20;9.82;;;20.00;92.90;;;;;;5018294;28;20045;-71
2022/04/23 13:00:11;;;;;;;11.75;9.68;;;20.40;93.40;;;;;;5018041;28;20058;-68
2022/04/23 13:02:38;;;;;;;9.02;8.10;;;20.80;94.60;;;;;;5013187;28;20472;-70
2022/04/23 13:05:05;;;;;;;9.45;8.60;;;21.30;93.90;;;;;;5018006;28;20053;-67
2022/04/23 13:10:15;;;;;;;14.45;8.50;;;21.80;91.00;;;;;;5017850;28;20046;-68
2022/04/23 13:12:41;;;;;;;9.68;7.53;;;22.40;88.70;;;;;;5017241;28;20125;-69
2022/04/23 13:15:07;;;;;;;9.68;8.73;;;22.90;85.90;;;;;;5017410;28;20124;-68